Time;durP1;ratioP1;P1;durP2;ratioP2;P2;SDS_P1;SDS_P2;PMS_P1;PMS_P2;Temp;Humidity;BMP_temperature;BMP_pressure;BME280_temperature;BME280_humidity;BME280_pressure;Samples;Min_cycle;Max_cycle;Signal;HPM_P1;HPM_P2
2021/12/13 00:01:11;;;;;;;4.17;2.57;;;;;;;-0.07;100.00;60798.59;5114298;28;20448;-76
2021/12/13 00:03:46;;;;;;;3.33;2.80;;;;;;;-1.31;100.00;60675.88;5114416;28;20523;-77
2021/12/13 00:06:19;;;;;;;4.00;3.00;;;;;;;-0.03;100.00;60802.81;5114343;28;20533;-75
2021/12/13 00:08:56;;;;;;;3.57;2.73;;;;;;;-0.26;100.00;60780.97;5114955;28;20433;-76
2021/12/13 00:11:31;;;;;;;3.83;2.53;;;;;;;-0.05;100.00;60805.72;5113847;28;20935;-77
2021/12/13 00:14:04;;;;;;;4.17;2.87;;;;;;;-1.68;100.00;60629.25;5114624;28;20440;-76
2021/12/13 00:16:37;;;;;;;2.90;2.40;;;;;;;-0.35;100.00;60771.44;5113849;28;20931;-75
2021/12/13 00:19:08;;;;;;;3.67;2.90;;;;;;;-0.10;100.00;60793.44;5112864;28;20441;-77
2021/12/13 00:21:39;;;;;;;4.57;2.87;;;;;;;-0.09;100.00;60796.47;5113363;28;20947;-77
2021/12/13 00:24:12;;;;;;;4.60;3.33;;;;;;;0.04;100.00;60810.25;5113268;28;20429;-75
2021/12/13 00:26:47;;;;;;;4.40;3.03;;;;;;;0.04;100.00;60810.25;5095430;28;21040;-78
2021/12/13 00:29:19;;;;;;;5.10;2.93;;;;;;;-1.69;100.00;60628.22;5112620;28;20439;-77
2021/12/13 00:32:00;;;;;;;3.80;2.40;;;;;;;-0.06;100.00;60799.66;5113556;28;20421;-76
2021/12/13 00:34:40;;;;;;;3.13;2.53;;;;;;;-1.10;100.00;60693.09;5112928;28;20521;-77
2021/12/13 00:37:10;;;;;;;2.63;2.40;;;;;;;-0.06;100.00;60799.66;5113690;28;20803;-75
2021/12/13 00:39:47;;;;;;;3.40;2.73;;;;;;;0.12;100.00;60818.19;5113116;28;20996;-75
2021/12/13 00:42:18;;;;;;;4.37;2.77;;;;;;;0.05;100.00;60806.28;5114503;28;20431;-75
2021/12/13 00:44:48;;;;;;;3.37;2.60;;;;;;;-0.20;100.00;60787.34;5117382;28;20464;-77
2021/12/13 00:47:20;;;;;;;3.40;2.73;;;;;;;0.05;100.00;60818.28;5113450;28;20549;-77
2021/12/13 00:49:56;;;;;;;3.03;2.27;;;;;;;-0.89;100.00;60717.84;5112934;28;20437;-77
2021/12/13 00:52:26;;;;;;;3.70;2.73;;;;;;;-0.13;100.00;60792.75;5112690;28;20436;-75
2021/12/13 00:54:56;;;;;;;3.17;2.30;;;;;;;0.16;100.00;60827.97;5113113;28;20987;-76
2021/12/13 00:57:45;;;;;;;2.73;2.27;;;;;;;0.15;100.00;60821.34;5112814;28;20906;-76
2021/12/13 01:00:21;;;;;;;3.13;2.40;;;;;;;0.23;100.00;60830.38;5112646;28;20449;-76
2021/12/13 01:02:54;;;;;;;3.07;2.50;;;;;;;0.20;100.00;60829.72;5112111;28;20539;-77
2021/12/13 01:05:41;;;;;;;3.77;2.93;;;;;;;-0.55;100.00;60750.25;5112858;28;20500;-76
2021/12/13 01:08:23;;;;;;;2.87;2.30;;;;;;;0.26;100.00;60828.56;5129307;28;20439;-76
2021/12/13 01:11:19;;;;;;;3.23;2.40;;;;;;;0.33;100.00;60840.44;5125665;28;20433;-76
2021/12/13 01:14:07;;;;;;;3.53;2.57;;;;;;;-1.13;100.00;60687.44;5118070;28;20448;-76
2021/12/13 01:16:52;;;;;;;3.00;2.13;;;;;;;0.22;100.00;60831.81;5094573;28;20448;-75
2021/12/13 01:25:21;;;;;;;2.90;2.53;;;;;;;0.34;100.00;60842.03;5107169;28;20904;-75
2021/12/13 01:27:56;;;;;;;3.53;2.27;;;;;;;-0.49;100.00;60759.13;5113087;28;20445;-77
2021/12/13 01:30:31;;;;;;;2.70;2.17;;;;;;;0.32;100.00;60844.94;5112200;28;20520;-76
2021/12/13 01:33:06;;;;;;;2.97;2.20;;;;;;;0.28;100.00;60835.69;5112854;28;20456;-76
2021/12/13 01:35:38;;;;;;;2.10;1.90;;;;;;;0.30;100.00;60839.78;5112243;28;20436;-77
2021/12/13 01:38:14;;;;;;;2.93;2.10;;;;;;;0.32;100.00;60839.91;5112279;28;20440;-76
2021/12/13 01:40:51;;;;;;;2.03;1.83;;;;;;;0.36;100.00;60846.66;5112332;28;20452;-75
2021/12/13 01:43:21;;;;;;;2.50;2.20;;;;;;;0.30;100.00;60837.78;5111710;28;20524;-77
2021/12/13 01:45:53;;;;;;;4.30;2.87;;;;;;;-0.93;100.00;60708.59;5111691;28;20476;-76
2021/12/13 01:48:25;;;;;;;3.30;2.60;;;;;;;0.48;100.00;60856.88;5111782;28;20477;-77
2021/12/13 01:51:04;;;;;;;3.40;2.50;;;;;;;-1.69;100.00;60627.69;5111777;28;20463;-75
2021/12/13 01:53:38;;;;;;;3.30;2.77;;;;;;;0.29;100.00;60836.72;5111904;28;20535;-76
2021/12/13 01:56:34;;;;;;;2.80;2.40;;;;;;;0.29;100.00;60836.72;5112412;28;20515;-77
2021/12/13 01:59:15;;;;;;;3.90;2.70;;;;;;;-0.22;100.00;60782.72;5111575;28;20931;-75
2021/12/13 02:01:44;;;;;;;4.00;2.83;;;;;;;0.35;100.00;60843.09;5111682;28;20548;-77
2021/12/13 02:04:15;;;;;;;4.37;2.60;;;;;;;0.06;100.00;60817.38;5111556;28;20524;-78
2021/12/13 02:06:47;;;;;;;3.50;2.90;;;;;;;0.25;100.00;60832.50;5111264;28;20488;-76
2021/12/13 02:09:20;;;;;;;3.03;2.50;;;;;;;0.30;100.00;60842.81;5111265;28;20815;-75
2021/12/13 02:11:50;;;;;;;3.23;2.60;;;;;;;-0.97;100.00;60709.38;5111932;28;20862;-75
2021/12/13 02:14:24;;;;;;;2.43;2.10;;;;;;;-0.02;100.00;60803.91;5111532;28;20448;-77
2021/12/13 02:17:10;;;;;;;2.53;2.30;;;;;;;-1.59;100.00;60638.78;5111424;28;20481;-75
2021/12/13 02:19:45;;;;;;;3.70;2.87;;;;;;;0.14;100.00;60825.84;5111872;28;20445;-76
2021/12/13 02:22:40;;;;;;;4.00;2.87;;;;;;;-0.86;100.00;60718.50;5111626;28;20497;-77
2021/12/13 02:25:18;;;;;;;2.63;2.30;;;;;;;0.11;100.00;60817.66;5115425;28;20529;-75
2021/12/13 02:27:53;;;;;;;3.00;2.70;;;;;;;0.20;100.00;60832.22;5115927;28;20483;-77
2021/12/13 02:30:27;;;;;;;3.83;2.53;;;;;;;0.14;100.00;60820.84;5116043;28;20977;-76
2021/12/13 02:33:00;;;;;;;5.00;2.97;;;;;;;0.13;100.00;60819.78;5114788;28;20472;-77
2021/12/13 02:35:31;;;;;;;3.87;3.00;;;;;;;0.22;100.00;60828.78;5115420;28;20508;-76
2021/12/13 02:38:07;;;;;;;3.20;2.90;;;;;;;0.19;100.00;60826.13;5115674;28;20440;-78
2021/12/13 02:40:36;;;;;;;3.60;2.77;;;;;;;0.14;100.00;60820.31;5115736;28;20444;-75
2021/12/13 02:43:05;;;;;;;4.37;3.20;;;;;;;0.15;100.00;60821.34;5115257;28;20521;-76
2021/12/13 02:45:42;;;;;;;3.67;3.00;;;;;;;-0.95;100.00;60705.94;5115878;28;20489;-76
2021/12/13 02:48:15;;;;;;;4.03;2.90;;;;;;;0.18;100.00;60825.09;5115332;28;20491;-76
2021/12/13 02:50:48;;;;;;;3.47;2.90;;;;;;;0.18;100.00;60819.53;5115414;28;20755;-77
2021/12/13 02:53:26;;;;;;;3.83;2.67;;;;;;;0.22;100.00;60829.31;5115183;28;20433;-75
2021/12/13 02:55:54;;;;;;;3.73;2.80;;;;;;;-1.11;100.00;60689.03;5120917;28;20448;-74
2021/12/13 02:58:25;;;;;;;3.93;2.63;;;;;;;-1.22;100.00;60677.91;5115389;28;20505;-78
2021/12/13 03:01:01;;;;;;;4.20;3.00;;;;;;;0.17;100.00;60824.00;5115028;28;20455;-74
2021/12/13 03:03:33;;;;;;;3.67;2.77;;;;;;;0.17;100.00;60826.53;5115020;28;20443;-76
2021/12/13 03:06:06;;;;;;;4.20;2.50;;;;;;;0.11;100.00;60819.63;5114668;28;20533;-75
2021/12/13 03:08:39;;;;;;;3.37;2.73;;;;;;;-1.37;100.00;60666.50;5115465;28;20497;-75
2021/12/13 03:11:14;;;;;;;4.20;2.73;;;;;;;0.04;100.00;60810.25;5096006;28;20452;-75
2021/12/13 03:13:43;;;;;;;3.87;3.03;;;;;;;-1.39;100.00;60659.94;5115061;28;20446;-76
2021/12/13 03:16:21;;;;;;;4.53;2.80;;;;;;;-0.06;100.00;60800.16;5115153;28;20437;-79
2021/12/13 03:18:58;;;;;;;4.87;3.10;;;;;;;-0.24;100.00;60780.59;5114451;28;20451;-76
2021/12/13 03:22:02;;;;;;;2.97;2.60;;;;;;;-0.14;100.00;60791.19;5114711;28;20942;-75
2021/12/13 03:24:48;;;;;;;4.50;2.97;;;;;;;0.00;100.00;60806.00;5114593;28;20439;-75
2021/12/13 03:27:57;;;;;;;4.83;2.77;;;;;;;-0.15;100.00;60790.13;5114071;28;20510;-76
2021/12/13 03:30:28;;;;;;;3.87;2.50;;;;;;;-1.58;100.00;60639.81;5031467;28;20919;-77
2021/12/13 03:33:01;;;;;;;4.97;3.00;;;;;;;-0.13;100.00;60792.22;5031556;28;20522;-74
2021/12/13 03:35:40;;;;;;;4.33;3.30;;;;;;;-1.90;100.00;60611.53;5062178;28;20443;-76
2021/12/13 03:38:12;;;;;;;5.87;3.67;;;;;;;-1.67;100.00;60630.31;5114425;28;20445;-75
2021/12/13 03:40:41;;;;;;;4.40;3.33;;;;;;;-0.21;100.00;60784.28;5114919;28;20449;-77
2021/12/13 03:45:57;;;;;;;5.53;4.20;;;;;;;-0.14;100.00;60788.69;5112940;28;20458;-77
2021/12/13 03:48:29;;;;;;;6.60;4.00;;;;;;;-0.12;100.00;60798.31;5113662;28;21003;-75
2021/12/13 03:51:09;;;;;;;5.47;4.07;;;;;;;-0.14;100.00;60788.69;5113615;28;20448;-79
2021/12/13 03:53:42;;;;;;;4.93;3.50;;;;;;;-0.32;100.00;60772.13;5113446;28;20974;-75
2021/12/13 03:56:26;;;;;;;6.57;4.33;;;;;;;-1.22;100.00;60687.38;5113608;28;20457;-76
2021/12/13 03:58:58;;;;;;;4.67;3.53;;;;;;;-0.14;100.00;60793.69;5114343;28;20440;-76
2021/12/13 04:01:33;;;;;;;4.73;3.40;;;;;;;-1.28;100.00;60671.56;5113680;28;20448;-76
2021/12/13 04:04:05;;;;;;;4.17;3.60;;;;;;;-1.52;100.00;60653.66;5095350;28;20432;-75
2021/12/13 04:06:39;;;;;;;5.13;3.80;;;;;;;-0.13;100.00;60792.22;5113907;28;20481;-76
2021/12/13 04:09:08;;;;;;;4.67;3.43;;;;;;;-0.16;100.00;60791.56;5095337;28;20467;-75
2021/12/13 04:11:43;;;;;;;4.73;3.70;;;;;;;-0.26;100.00;60778.47;5114286;28;20445;-79
2021/12/13 04:14:26;;;;;;;5.73;4.13;;;;;;;-1.98;100.00;60598.06;5113852;28;21039;-77
2021/12/13 04:17:08;;;;;;;5.70;3.73;;;;;;;-0.16;100.00;60794.06;5114164;28;20447;-77
2021/12/13 04:19:52;;;;;;;5.27;4.10;;;;;;;-0.22;100.00;60787.72;5113952;28;20502;-76
2021/12/13 04:22:25;;;;;;;5.07;3.73;;;;;;;-0.16;100.00;60789.06;5114410;28;20441;-76
2021/12/13 04:24:57;;;;;;;5.30;3.77;;;;;;;-0.64;100.00;60740.75;5113569;28;20600;-76
2021/12/13 04:27:36;;;;;;;5.80;4.10;;;;;;;-1.18;100.00;60681.59;5113657;28;21081;-77
2021/12/13 04:30:22;;;;;;;5.37;3.93;;;;;;;-1.22;100.00;60682.38;5113824;28;20433;-78
2021/12/13 04:32:55;;;;;;;6.53;3.23;;;;;;;-0.06;100.00;60799.66;5113768;28;20525;-75
2021/12/13 04:35:24;;;;;;;6.73;4.17;;;;;;;-0.07;100.00;60803.59;5113382;28;20807;-74
2021/12/13 04:37:58;;;;;;;6.30;4.50;;;;;;;-0.23;100.00;60782.19;5095304;28;20454;-80
2021/12/13 04:40:32;;;;;;;6.63;4.80;;;;;;;-1.07;100.00;60698.78;5113525;28;20456;-76
2021/12/13 04:43:06;;;;;;;5.33;4.10;;;;;;;-0.61;100.00;60746.94;5113727;28;20433;-76
2021/12/13 04:45:35;;;;;;;7.03;4.80;;;;;;;-0.15;100.00;60792.63;5094283;28;20457;-76
2021/12/13 04:48:09;;;;;;;8.00;4.57;;;;;;;-0.49;100.00;60749.09;5091221;28;20486;-77
2021/12/13 04:50:46;;;;;;;6.23;4.37;;;;;;;-0.21;100.00;60788.75;5092325;28;20870;-76
2021/12/13 04:53:20;;;;;;;6.40;4.30;;;;;;;-1.41;100.00;60662.81;5091423;28;20449;-76
2021/12/13 04:55:51;;;;;;;6.97;4.70;;;;;;;-0.25;100.00;60782.03;5092931;28;20507;-75
2021/12/13 04:58:28;;;;;;;5.77;4.00;;;;;;;-0.16;100.00;60789.56;5092670;28;20441;-76
2021/12/13 05:01:01;;;;;;;11.17;5.43;;;;;;;-0.49;100.00;60759.13;5092622;28;20964;-76
2021/12/13 05:03:33;;;;;;;6.67;4.77;;;;;;;-1.39;100.00;60659.41;5092643;28;20511;-78
2021/12/13 05:06:05;;;;;;;8.23;5.37;;;;;;;-0.28;100.00;60781.34;5091643;28;20442;-76
2021/12/13 05:08:35;;;;;;;8.23;5.43;;;;;;;-0.07;100.00;60803.59;5100720;28;20488;-75
2021/12/13 05:11:06;;;;;;;8.03;5.40;;;;;;;-0.10;100.00;60795.41;5092756;28;20422;-77
2021/12/13 05:13:46;;;;;;;9.07;6.10;;;;;;;-0.09;100.00;60798.97;5093204;28;20529;-76
2021/12/13 05:19:11;;;;;;;8.57;5.70;;;;;;;-0.86;100.00;60713.50;5092754;28;20437;-75
2021/12/13 05:21:56;;;;;;;7.83;5.07;;;;;;;-0.15;100.00;60795.13;5092960;28;20434;-77
2021/12/13 05:24:32;;;;;;;6.37;3.87;;;;;;;-0.13;100.00;60794.72;5095263;28;20438;-78
2021/12/13 05:27:04;;;;;;;7.57;4.97;;;;;;;-0.11;100.00;60794.34;5092616;28;20477;-76
2021/12/13 05:29:40;;;;;;;11.40;5.70;;;;;;;-0.16;100.00;60789.56;5092364;28;20652;-77
2021/12/13 05:32:16;;;;;;;9.70;5.77;;;;;;;-0.18;100.00;60789.97;5091515;28;20449;-78
2021/12/13 05:34:51;;;;;;;6.87;4.93;;;;;;;-0.18;100.00;60791.94;5091812;28;20460;-77
2021/12/13 05:37:21;;;;;;;8.40;5.80;;;;;;;-0.15;100.00;60790.66;5090817;28;20532;-76
2021/12/13 05:39:59;;;;;;;8.33;5.47;;;;;;;-0.15;100.00;60790.13;5091735;28;20462;-76
2021/12/13 05:42:46;;;;;;;7.83;5.57;;;;;;;-0.11;100.00;60789.34;5091742;28;20528;-75
2021/12/13 05:45:20;;;;;;;8.37;5.30;;;;;;;-0.09;100.00;60796.47;5091915;28;20519;-76
2021/12/13 05:47:59;;;;;;;7.97;5.53;;;;;;;-0.06;100.00;60802.16;5096869;28;20476;-78
2021/12/13 05:50:31;;;;;;;7.80;5.40;;;;;;;0.04;100.00;60812.75;5112191;28;20943;-76
2021/12/13 05:53:10;;;;;;;7.80;5.30;;;;;;;-0.23;100.00;60782.19;5111610;28;20445;-77
2021/12/13 05:58:58;;;;;;;8.53;5.83;;;;;;;0.04;100.00;60815.25;5110351;28;20455;-77
2021/12/13 06:01:30;;;;;;;7.73;5.27;;;;;;;0.07;100.00;60815.91;5112532;28;20446;-77
2021/12/13 06:04:16;;;;;;;10.03;5.27;;;;;;;0.04;100.00;60815.25;5113122;28;20424;-76
2021/12/13 06:06:47;;;;;;;7.00;5.20;;;;;;;0.07;100.00;60810.91;5111829;28;20947;-75
2021/12/13 06:09:48;;;;;;;8.33;5.50;;;;;;;-0.04;100.00;60801.78;5111917;28;20441;-78
2021/12/13 06:15:28;;;;;;;8.27;5.40;;;;;;;0.07;100.00;60813.41;5112026;28;20443;-75
2021/12/13 06:18:13;;;;;;;9.53;5.73;;;;;;;-1.49;100.00;60656.84;5112039;28;20433;-76
2021/12/13 06:20:48;;;;;;;10.20;6.53;;;;;;;0.03;100.00;60811.69;5111893;28;20433;-77
2021/12/13 06:23:23;;;;;;;7.73;5.37;;;;;;;-0.84;100.00;60722.06;5111877;28;20437;-75
2021/12/13 06:25:57;;;;;;;9.03;6.70;;;;;;;0.04;100.00;60815.25;5111780;28;20437;-76
2021/12/13 06:28:28;;;;;;;10.93;6.97;;;;;;;-0.04;100.00;60806.78;5111666;28;20532;-76
2021/12/13 06:31:03;;;;;;;8.27;5.30;;;;;;;-1.69;100.00;60635.69;5111558;28;20449;-75
2021/12/13 06:33:46;;;;;;;8.47;5.23;;;;;;;-0.05;100.00;60798.19;5111531;28;20460;-76
2021/12/13 06:36:13;;;;;;;10.90;6.43;;;;;;;-1.35;100.00;60663.63;5111954;28;20474;-75
2021/12/13 06:38:49;;;;;;;8.77;5.57;;;;;;;-1.44;100.00;60649.63;5112336;28;20428;-76
2021/12/13 06:41:42;;;;;;;8.23;5.47;;;;;;;-0.02;100.00;60799.41;5112403;28;20453;-76
2021/12/13 06:44:21;;;;;;;7.13;5.00;;;;;;;-0.11;100.00;60794.88;5112108;28;20440;-77
2021/12/13 06:46:55;;;;;;;8.57;5.60;;;;;;;-0.17;100.00;60785.50;5077427;28;20818;-76
2021/12/13 06:49:29;;;;;;;7.80;5.97;;;;;;;-1.03;100.00;60699.97;5112415;28;20559;-74
2021/12/13 06:52:00;;;;;;;9.50;5.63;;;;;;;-0.75;100.00;60731.59;5111876;28;20563;-75
2021/12/13 06:54:32;;;;;;;8.23;5.83;;;;;;;-0.73;100.00;60733.69;5111602;28;20449;-75
2021/12/13 06:57:02;;;;;;;8.77;6.17;;;;;;;-0.05;100.00;60805.72;5111433;28;20860;-76
2021/12/13 06:59:36;;;;;;;11.23;6.53;;;;;;;0.03;100.00;60814.19;5111842;28;20425;-77
2021/12/13 07:02:11;;;;;;;11.57;7.67;;;;;;;-0.23;100.00;60782.19;5111467;28;20432;-75
2021/12/13 07:04:56;;;;;;;10.23;6.57;;;;;;;-1.23;100.00;60666.34;5111161;28;20943;-75
2021/12/13 07:07:28;;;;;;;11.63;7.20;;;;;;;0.13;100.00;60817.28;5111427;28;20471;-76
2021/12/13 07:09:58;;;;;;;9.83;6.10;;;;;;;0.24;100.00;60831.44;5113992;28;20899;-77
2021/12/13 07:12:31;;;;;;;10.93;6.40;;;;;;;0.14;100.00;60820.31;5115879;28;20911;-76
2021/12/13 07:15:00;;;;;;;11.33;6.13;;;;;;;0.07;100.00;60818.44;5097168;28;20565;-77
2021/12/13 07:17:33;;;;;;;12.60;6.20;;;;;;;0.21;100.00;60828.25;5118327;28;21012;-76
2021/12/13 07:20:15;;;;;;;13.30;6.90;;;;;;;0.13;100.00;60822.28;5118009;28;20445;-75
2021/12/13 07:23:01;;;;;;;9.03;5.93;;;;;;;0.09;100.00;60815.53;5115433;28;20444;-76
2021/12/13 07:25:37;;;;;;;8.77;6.20;;;;;;;-1.00;100.00;60703.16;5114698;28;20444;-75
2021/12/13 07:28:06;;;;;;;8.80;6.07;;;;;;;0.12;100.00;60821.22;5114460;28;20476;-76
2021/12/13 07:30:35;;;;;;;10.13;6.03;;;;;;;-1.61;100.00;60634.16;5115802;28;20955;-75
2021/12/13 07:33:07;;;;;;;9.80;6.47;;;;;;;-0.90;100.00;60716.75;5114982;28;20467;-77
2021/12/13 07:35:41;;;;;;;8.80;5.90;;;;;;;0.11;100.00;60820.16;5114661;28;20502;-75
2021/12/13 07:38:13;;;;;;;9.50;6.07;;;;;;;-0.21;100.00;60783.75;5114575;28;20445;-75
2021/12/13 07:40:45;;;;;;;11.67;5.70;;;;;;;-1.06;100.00;60694.84;5115688;28;20445;-76
2021/12/13 07:43:26;;;;;;;8.20;5.87;;;;;;;0.35;100.00;60843.09;5115308;28;20848;-77
2021/12/13 07:46:01;;;;;;;6.53;4.50;;;;;;;-0.69;100.00;60737.94;5115709;28;20464;-75
2021/12/13 07:48:31;;;;;;;10.57;6.60;;;;;;;0.34;100.00;60842.03;5114158;28;20500;-77
2021/12/13 07:51:08;;;;;;;9.40;6.67;;;;;;;0.34;100.00;60842.03;5114133;28;20437;-77
2021/12/13 07:54:02;;;;;;;8.03;5.27;;;;;;;0.39;100.00;60846.78;5095778;28;20436;-76
2021/12/13 07:56:43;;;;;;;9.87;5.90;;;;;;;0.11;100.00;60820.16;5114617;28;20425;-75
2021/12/13 07:59:15;;;;;;;8.93;5.90;;;;;;;0.18;100.00;60825.09;5113625;28;20452;-75
2021/12/13 08:01:47;;;;;;;9.67;5.83;;;;;;;0.39;100.00;60847.31;5095612;28;20987;-75
2021/12/13 08:04:21;;;;;;;8.10;5.90;;;;;;;0.37;100.00;60847.19;5095736;28;20441;-76
2021/12/13 08:06:57;;;;;;;8.30;5.43;;;;;;;-0.16;100.00;60791.56;5114163;28;20482;-75
2021/12/13 08:09:32;;;;;;;8.47;5.90;;;;;;;0.40;100.00;60853.41;5113807;28;20862;-76
2021/12/13 08:12:14;;;;;;;8.67;6.33;;;;;;;0.39;100.00;60846.78;5114582;28;20428;-79
2021/12/13 08:14:49;;;;;;;8.80;5.03;;;;;;;0.35;100.00;60843.09;5113871;28;20420;-77
2021/12/13 08:17:20;;;;;;;9.57;5.97;;;;;;;0.47;100.00;60853.31;5114237;28;20428;-76
2021/12/13 08:19:54;;;;;;;8.53;5.50;;;;;;;-0.92;100.00;60711.63;5095361;28;20463;-75
2021/12/13 08:22:44;;;;;;;7.40;5.20;;;;;;;0.53;100.00;60862.16;5113292;28;20428;-77
2021/12/13 08:25:17;;;;;;;7.63;5.90;;;;;;;-1.02;100.00;60698.53;5113656;28;20849;-75
2021/12/13 08:27:54;;;;;;;10.47;6.90;;;;;;;0.06;100.00;60814.88;5113531;28;20479;-76
2021/12/13 08:30:24;;;;;;;9.53;5.80;;;;;;;0.60;100.00;60867.09;5113798;28;20428;-78
2021/12/13 08:33:06;;;;;;;10.33;6.77;;;;;;;0.66;100.00;60872.91;5095158;28;20472;-77
2021/12/13 08:36:09;;;;;;;12.13;6.67;;;;;;;0.12;100.00;60820.69;5113105;28;20797;-78
2021/12/13 08:38:55;;;;;;;12.37;6.87;;;;;;;0.07;100.00;60813.41;5030677;28;20955;-76
2021/12/13 08:41:29;;;;;;;7.73;4.80;;;;;;;0.39;100.00;60852.34;5030332;28;20460;-77
2021/12/13 08:44:02;;;;;;;8.47;5.30;;;;;;;0.57;100.00;60871.41;5083393;28;20530;-77
2021/12/13 08:46:37;;;;;;;8.87;5.70;;;;;;;-0.73;100.00;60738.69;5113263;28;20433;-75
2021/12/13 08:49:23;;;;;;;10.07;6.30;;;;;;;0.59;100.00;60873.53;5113545;28;20495;-77
2021/12/13 08:52:10;;;;;;;13.97;9.43;;;;;;;0.73;100.00;60888.38;5095284;28;20739;-75
2021/12/13 08:54:51;;;;;;;8.30;5.27;;;;;;;0.59;100.00;60868.53;5110936;28;20433;-77
2021/12/13 08:57:35;;;;;;;9.57;6.30;;;;;;;-0.32;100.00;60767.63;5113095;28;20435;-78
2021/12/13 09:00:15;;;;;;;10.63;5.33;;;;;;;0.68;100.00;60878.06;5093583;28;20484;-76
2021/12/13 09:02:47;;;;;;;8.57;6.17;;;;;;;0.41;100.00;60841.94;5111988;28;20502;-77
2021/12/13 09:05:20;;;;;;;8.23;5.43;;;;;;;-0.46;100.00;60764.78;5111973;28;20444;-76
2021/12/13 09:07:52;;;;;;;9.10;6.03;;;;;;;-0.53;100.00;60749.88;5112058;28;20480;-75
2021/12/13 09:10:22;;;;;;;8.63;6.10;;;;;;;0.88;100.00;60898.22;5111913;28;20445;-76
2021/12/13 09:15:45;;;;;;;9.73;5.53;;;;;;;-0.48;100.00;60757.69;5112147;28;20554;-78
2021/12/13 09:18:22;;;;;;;8.33;6.10;;;;;;;-0.66;100.00;60741.13;5093458;28;20436;-77
2021/12/13 09:20:57;;;;;;;9.37;5.10;;;;;;;1.09;100.00;60921.00;5112226;28;20436;-77
2021/12/13 09:23:28;;;;;;;9.93;5.60;;;;;;;1.04;100.00;60920.19;5111119;28;20455;-75
2021/12/13 09:26:05;;;;;;;9.30;5.63;;;;;;;0.96;100.00;60907.22;5112145;28;20441;-76
2021/12/13 09:28:37;;;;;;;7.23;5.10;;;;;;;-0.83;100.00;60718.13;5118418;28;20491;-75
2021/12/13 09:31:08;;;;;;;9.93;6.13;;;;;;;0.44;100.00;60852.63;5112018;28;20440;-78
2021/12/13 09:33:37;;;;;;;9.73;6.60;;;;;;;0.47;100.00;60858.31;5111393;28;20465;-76
2021/12/13 09:36:07;;;;;;;9.50;4.97;;;;;;;1.28;100.00;60941.16;5111746;28;20444;-75
2021/12/13 09:38:41;;;;;;;7.87;5.63;;;;;;;1.03;100.00;60919.66;5112445;28;20988;-75
2021/12/13 09:41:15;;;;;;;10.30;6.27;;;;;;;1.08;100.00;60919.41;5112317;28;20522;-79
2021/12/13 09:43:51;;;;;;;9.77;5.73;;;;;;;0.08;100.00;60822.00;5094879;28;20444;-78
2021/12/13 09:46:29;;;;;;;8.73;6.20;;;;;;;-0.09;100.00;60796.47;5112620;28;20443;-77
2021/12/13 09:49:01;;;;;;;10.40;6.17;;;;;;;0.02;100.00;60807.59;5111633;28;20492;-76
2021/12/13 09:51:32;;;;;;;9.57;6.30;;;;;;;1.11;100.00;60923.13;5112901;28;20502;-76
2021/12/13 09:54:05;;;;;;;9.43;5.93;;;;;;;1.17;100.00;60929.50;5112229;28;20460;-76
2021/12/13 09:56:39;;;;;;;8.90;5.90;;;;;;;0.47;100.00;60860.81;5112499;28;20441;-78
2021/12/13 09:59:17;;;;;;;8.53;5.73;;;;;;;1.22;100.00;60934.28;5112388;28;20524;-75
2021/12/13 10:01:45;;;;;;;7.60;5.23;;;;;;;0.12;100.00;60818.72;5093959;28;20447;-77
2021/12/13 10:04:16;;;;;;;12.60;7.00;;;;;;;0.00;100.00;60809.03;5112299;28;20505;-77
2021/12/13 10:06:56;;;;;;;9.13;6.73;;;;;;;1.21;100.00;60933.72;5111833;28;20525;-77
2021/12/13 10:09:28;;;;;;;11.80;7.60;;;;;;;1.24;100.00;60936.94;5112137;28;20564;-77
2021/12/13 10:12:04;;;;;;;11.93;7.63;;;;;;;1.34;100.00;60949.50;5111986;28;20445;-77
2021/12/13 10:14:38;;;;;;;10.03;6.63;;;;;;;-0.46;100.00;60757.28;5094737;28;20508;-76
2021/12/13 10:17:15;;;;;;;11.87;6.57;;;;;;;1.40;100.00;60953.38;5112078;28;20532;-76
2021/12/13 10:19:52;;;;;;;9.07;5.67;;;;;;;1.33;100.00;60948.47;5113396;28;20485;-77
2021/12/13 10:22:26;;;;;;;10.50;5.23;;;;;;;1.23;100.00;60932.84;5113588;28;20448;-78
2021/12/13 10:25:00;;;;;;;11.10;6.40;;;;;;;0.18;100.00;60825.09;5112967;28;20425;-76
2021/12/13 10:30:20;;;;;;;9.50;5.50;;;;;;;-0.13;100.00;60792.22;5114661;28;20499;-77
2021/12/13 10:32:53;;;;;;;9.10;6.13;;;;;;;1.20;100.00;60932.16;5113225;28;20425;-77
2021/12/13 10:35:27;;;;;;;12.57;6.07;;;;;;;1.20;100.00;60934.66;5112241;28;20445;-77
2021/12/13 10:38:37;;;;;;;13.20;6.50;;;;;;;1.06;100.00;60922.31;5113662;28;20440;-77
2021/12/13 10:41:19;;;;;;;10.23;6.27;;;;;;;1.42;100.00;60956.03;5112093;28;20456;-78
2021/12/13 10:43:52;;;;;;;9.97;6.57;;;;;;;1.36;100.00;60949.13;5113506;28;20520;-76
2021/12/13 10:46:25;;;;;;;5.70;4.33;;;;;;;1.33;100.00;60946.47;5115534;28;20449;-76
2021/12/13 10:48:59;;;;;;;9.80;5.57;;;;;;;1.25;100.00;60937.97;5116014;28;20483;-77
2021/12/13 10:51:34;;;;;;;8.17;6.23;;;;;;;0.02;100.00;60808.13;5115168;28;20954;-78
2021/12/13 10:54:08;;;;;;;7.77;5.80;;;;;;;1.28;100.00;60940.63;5115884;28;20435;-74
2021/12/13 10:56:42;;;;;;;9.80;5.23;;;;;;;1.38;100.00;60951.25;5117278;28;20893;-76
2021/12/13 10:59:16;;;;;;;10.97;6.27;;;;;;;1.52;100.00;60966.09;5115051;28;20788;-76
2021/12/13 11:01:47;;;;;;;8.83;5.90;;;;;;;1.48;100.00;60961.84;5115974;28;20436;-77
2021/12/13 11:04:22;;;;;;;8.63;4.90;;;;;;;0.59;100.00;60868.00;5115520;28;20441;-76
2021/12/13 11:06:51;;;;;;;7.03;5.10;;;;;;;0.62;100.00;60871.72;5114782;28;20453;-77
2021/12/13 11:09:23;;;;;;;8.40;5.63;;;;;;;-0.22;100.00;60778.22;5114956;28;20468;-77
2021/12/13 11:11:56;;;;;;;7.40;4.53;;;;;;;1.46;100.00;60959.72;5115210;28;20498;-76
2021/12/13 11:15:03;;;;;;;8.27;5.77;;;;;;;0.96;100.00;60906.69;5115513;28;20915;-76
2021/12/13 11:17:37;;;;;;;9.10;6.77;;;;;;;-0.13;100.00;60792.22;5096615;28;20464;-75
2021/12/13 11:20:10;;;;;;;9.17;6.23;;;;;;;1.33;100.00;60945.94;5115024;28;20441;-75
2021/12/13 11:22:43;;;;;;;9.43;6.47;;;;;;;0.18;100.00;60827.59;5115328;28;20462;-77
2021/12/13 11:25:15;;;;;;;9.50;6.23;;;;;;;1.47;100.00;60966.34;5097110;28;20448;-75
2021/12/13 11:27:46;;;;;;;10.43;6.67;;;;;;;0.76;100.00;60886.56;5096672;28;20897;-78
2021/12/13 11:30:28;;;;;;;12.10;7.03;;;;;;;1.37;100.00;60947.69;5114609;28;20541;-76
2021/12/13 11:33:43;;;;;;;10.63;6.87;;;;;;;1.55;100.00;60969.28;5115434;28;20505;-78
2021/12/13 11:36:53;;;;;;;12.30;7.27;;;;;;;1.46;100.00;60959.72;5073361;28;20428;-76
2021/12/13 11:39:42;;;;;;;13.43;7.40;;;;;;;1.58;100.00;60978.03;5114800;28;20452;-76
2021/12/13 11:42:29;;;;;;;8.47;5.70;;;;;;;1.30;100.00;60943.28;5114529;28;20521;-76
2021/12/13 11:45:22;;;;;;;9.17;6.17;;;;;;;1.51;100.00;60965.03;5115382;28;20508;-76
2021/12/13 11:48:23;;;;;;;9.33;6.33;;;;;;;1.26;100.00;60939.06;5112235;28;21022;-76
2021/12/13 11:51:23;;;;;;;8.63;5.63;;;;;;;1.55;100.00;60967.28;5054111;28;20440;-79
2021/12/13 11:54:07;;;;;;;15.00;6.57;;;;;;;1.67;100.00;60982.03;5109421;28;20511;-77
2021/12/13 11:57:20;;;;;;;9.97;6.60;;;;;;;1.61;100.00;60978.69;5113712;28;20541;-75
2021/12/13 12:00:10;;;;;;;11.43;6.87;;;;;;;1.57;100.00;60976.94;5114493;28;20436;-75
2021/12/13 12:03:07;;;;;;;10.33;6.00;;;;;;;1.70;100.00;60985.19;5096379;28;20477;-77
2021/12/13 12:06:03;;;;;;;11.73;6.63;;;;;;;1.43;100.00;60956.56;5114402;28;20421;-77
2021/12/13 12:08:57;;;;;;;9.43;5.80;;;;;;;1.71;100.00;60991.28;5114134;28;20498;-76
2021/12/13 12:12:04;;;;;;;14.90;8.70;;;;;;;1.77;100.00;60990.13;5114152;28;20441;-79
2021/12/13 12:14:34;;;;;;;12.43;6.70;;;;;;;1.77;100.00;60992.63;5096395;28;20459;-76
2021/12/13 12:17:03;;;;;;;9.37;6.97;;;;;;;1.67;100.00;60982.03;5113817;28;20501;-77
2021/12/13 12:19:41;;;;;;;7.87;5.17;;;;;;;-0.88;100.00;60716.38;5114849;28;20441;-76
2021/12/13 12:22:15;;;;;;;10.43;6.70;;;;;;;1.64;100.00;60978.84;5115056;28;20447;-76
2021/12/13 12:24:45;;;;;;;9.93;6.70;;;;;;;0.43;100.00;60846.56;5114272;28;20463;-75
2021/12/13 12:27:17;;;;;;;11.00;7.33;;;;;;;1.27;100.00;60934.56;5115671;28;20445;-77
2021/12/13 12:29:51;;;;;;;9.07;6.13;;;;;;;1.62;100.00;60979.22;5115486;28;20477;-76
2021/12/13 12:32:21;;;;;;;7.07;4.87;;;;;;;1.49;100.00;60968.47;5097400;28;20476;-78
2021/12/13 12:35:18;;;;;;;10.40;6.27;;;;;;;0.99;100.00;60914.91;5096618;28;20457;-78
2021/12/13 12:38:27;;;;;;;12.73;7.63;;;;;;;1.60;100.00;60974.59;5114332;28;20433;-79